createdAt,value
2023-05-03T00:01:48.960Z,8.45
2023-05-03T00:04:17.821Z,8.50
2023-05-03T00:06:45.430Z,8.41
2023-05-03T00:09:14.461Z,8.51
2023-05-03T00:11:43.667Z,8.61
2023-05-03T00:14:11.149Z,8.58
2023-05-03T00:16:38.685Z,8.57
2023-05-03T00:19:06.582Z,8.40
2023-05-03T00:21:35.445Z,8.39
2023-05-03T00:24:03.715Z,8.32
2023-05-03T00:26:31.237Z,8.26
2023-05-03T00:29:00.881Z,8.32
2023-05-03T00:31:28.429Z,8.40
2023-05-03T00:33:56.213Z,8.48
2023-05-03T00:36:23.651Z,8.40
2023-05-03T00:38:51.461Z,8.42
2023-05-03T00:41:19.240Z,8.45
2023-05-03T00:43:47.262Z,8.49
2023-05-03T00:46:17.636Z,8.53
2023-05-03T00:48:45.827Z,8.49
2023-05-03T00:51:14.379Z,8.52
2023-05-03T00:53:42.360Z,8.56
2023-05-03T00:56:11.198Z,8.52
2023-05-03T00:58:40.414Z,8.53
2023-05-03T01:01:08.714Z,8.50
2023-05-03T01:03:41.838Z,8.46
2023-05-03T01:06:16.172Z,8.24
2023-05-03T01:08:48.310Z,8.35
2023-05-03T01:11:20.798Z,8.35
2023-05-03T01:13:53.923Z,8.40
2023-05-03T01:16:26.575Z,8.35
2023-05-03T01:18:58.023Z,8.40
2023-05-03T01:21:26.663Z,8.37
2023-05-03T01:23:58.553Z,8.17
2023-05-03T01:26:28.511Z,8.25
2023-05-03T01:28:56.860Z,8.29
2023-05-03T01:31:29.372Z,8.26
2023-05-03T01:34:04.302Z,8.29
2023-05-03T01:36:33.671Z,8.32
2023-05-03T01:39:06.886Z,8.25
2023-05-03T01:41:38.920Z,8.20
2023-05-03T01:44:07.762Z,8.26
2023-05-03T01:46:35.277Z,8.25
2023-05-03T01:49:02.758Z,8.08
2023-05-03T01:51:30.212Z,8.17
2023-05-03T01:53:57.705Z,8.17
2023-05-03T01:56:26.278Z,8.15
2023-05-03T01:58:55.857Z,8.22
2023-05-03T02:01:23.951Z,8.20
2023-05-03T02:03:51.562Z,8.22
2023-05-03T02:06:19.151Z,8.16
2023-05-03T02:08:47.014Z,8.08
2023-05-03T02:11:14.498Z,8.00
2023-05-03T02:13:42.025Z,7.95
2023-05-03T02:16:11.316Z,7.93
2023-05-03T02:18:38.852Z,7.89
2023-05-03T02:21:06.796Z,7.85
2023-05-03T02:23:34.305Z,7.88
2023-05-03T02:26:01.824Z,7.85
2023-05-03T02:28:29.387Z,7.87
2023-05-03T02:30:57.027Z,7.91
2023-05-03T02:33:26.244Z,7.89
2023-05-03T02:35:54.065Z,7.86
2023-05-03T02:38:21.915Z,7.87
2023-05-03T02:40:49.420Z,7.89
2023-05-03T02:43:16.995Z,7.80
2023-05-03T02:45:44.636Z,7.81
2023-05-03T02:48:13.696Z,7.72
2023-05-03T02:50:43.658Z,7.65
2023-05-03T02:53:11.656Z,7.66
2023-05-03T02:55:39.175Z,7.63
2023-05-03T02:58:06.702Z,7.58
2023-05-03T03:00:34.504Z,7.66
2023-05-03T03:03:02.098Z,7.68
2023-05-03T03:05:29.868Z,7.65
2023-05-03T03:07:58.742Z,7.68
2023-05-03T03:10:27.252Z,7.67
2023-05-03T03:12:54.877Z,7.66
2023-05-03T03:15:32.336Z,7.68
2023-05-03T03:17:59.900Z,7.67
2023-05-03T03:20:29.045Z,7.67
2023-05-03T03:22:59.187Z,7.66
2023-05-03T03:25:27.534Z,7.61
2023-05-03T03:27:57.868Z,7.52
2023-05-03T03:30:25.687Z,7.50
2023-05-03T03:33:02.935Z,7.51
2023-05-03T03:35:38.021Z,7.33
2023-05-03T03:38:07.666Z,7.38
2023-05-03T03:40:39.468Z,7.40
2023-05-03T03:43:07.176Z,7.41
2023-05-03T03:45:36.257Z,7.31
2023-05-03T03:48:04.106Z,7.34
2023-05-03T03:50:32.282Z,7.34
2023-05-03T03:52:59.882Z,7.31
2023-05-03T03:55:28.824Z,7.23
2023-05-03T03:57:58.331Z,7.27
2023-05-03T04:00:27.688Z,7.31
2023-05-03T04:03:07.511Z,7.32
2023-05-03T04:05:36.436Z,7.29
2023-05-03T04:08:05.048Z,7.32
2023-05-03T04:10:36.103Z,7.20
2023-05-03T04:13:03.784Z,7.18
2023-05-03T04:15:31.288Z,7.14
2023-05-03T04:18:00.898Z,7.21
2023-05-03T04:20:29.311Z,7.19
2023-05-03T04:22:56.896Z,7.20
2023-05-03T04:25:28.825Z,7.10
2023-05-03T04:28:02.386Z,6.89
2023-05-03T04:30:31.906Z,6.98
2023-05-03T04:33:01.728Z,6.99
2023-05-03T04:35:31.828Z,6.95
2023-05-03T04:38:04.359Z,7.03
2023-05-03T04:40:34.666Z,7.10
2023-05-03T04:43:08.308Z,6.96
2023-05-03T04:45:39.496Z,7.06
2023-05-03T04:48:10.103Z,7.12
2023-05-03T04:50:37.726Z,7.15
2023-05-03T04:53:08.315Z,7.00
2023-05-03T04:55:40.079Z,7.03
2023-05-03T04:58:09.066Z,7.11
2023-05-03T05:00:38.174Z,7.14
2023-05-03T05:03:12.277Z,7.27
2023-05-03T05:05:40.329Z,7.31
2023-05-03T05:08:10.605Z,7.19
2023-05-03T05:10:43.403Z,7.17
2023-05-03T05:13:18.646Z,7.34
2023-05-03T05:15:46.198Z,7.19
2023-05-03T05:18:14.409Z,7.25
2023-05-03T05:20:42.628Z,7.40
2023-05-03T05:23:10.776Z,7.44
2023-05-03T05:25:41.989Z,7.48
2023-05-03T05:28:10.561Z,7.54
2023-05-03T05:30:39.850Z,7.49
2023-05-03T05:33:08.283Z,7.56
2023-05-03T05:35:36.346Z,7.52
2023-05-03T05:38:05.368Z,7.57
2023-05-03T05:40:34.207Z,7.61
2023-05-03T05:43:02.482Z,7.61
2023-05-03T05:45:34.453Z,7.65
2023-05-03T05:48:04.689Z,7.70
2023-05-03T05:50:32.891Z,7.58
2023-05-03T05:53:05.653Z,7.80
2023-05-03T05:55:37.652Z,7.79
2023-05-03T05:58:05.931Z,7.88
2023-05-03T06:00:40.192Z,7.94
2023-05-03T06:03:09.482Z,8.01
2023-05-03T06:05:37.394Z,8.14
2023-05-03T06:08:05.188Z,7.95
2023-05-03T06:10:33.136Z,8.15
2023-05-03T06:13:00.711Z,8.24
2023-05-03T06:15:29.285Z,8.35
2023-05-03T06:17:56.918Z,8.46
2023-05-03T06:20:26.311Z,8.47
2023-05-03T06:22:54.950Z,8.52
2023-05-03T06:25:22.547Z,8.60
2023-05-03T06:27:51.636Z,8.63
2023-05-03T06:30:23.584Z,8.74
2023-05-03T06:32:51.883Z,8.83
2023-05-03T06:35:21.722Z,8.89
2023-05-03T06:37:50.718Z,8.96
2023-05-03T06:40:18.680Z,9.01
2023-05-03T06:42:46.231Z,9.03
2023-05-03T06:45:19.606Z,9.06
2023-05-03T06:47:47.300Z,9.02
2023-05-03T06:50:14.883Z,9.18
2023-05-03T06:52:42.457Z,9.33
2023-05-03T06:55:11.348Z,9.39
2023-05-03T06:57:39.710Z,9.46
2023-05-03T07:00:08.873Z,9.54
2023-05-03T07:02:37.266Z,9.61
2023-05-03T07:05:05.602Z,9.70
2023-05-03T07:07:33.818Z,9.80
2023-05-03T07:10:01.519Z,9.80
2023-05-03T07:12:30.565Z,9.89
2023-05-03T07:14:58.433Z,10.05
2023-05-03T07:17:26.252Z,10.17
2023-05-03T07:19:54.196Z,10.30
2023-05-03T07:22:24.654Z,10.45
2023-05-03T07:24:52.740Z,10.45
2023-05-03T07:27:20.342Z,10.61
2023-05-03T07:29:49.169Z,10.66
2023-05-03T07:32:16.691Z,10.67
2023-05-03T07:34:44.297Z,10.80
2023-05-03T07:37:12.166Z,10.78
2023-05-03T07:39:40.098Z,10.73
2023-05-03T07:42:07.638Z,10.70
2023-05-03T07:44:35.147Z,10.71
2023-05-03T07:47:04.276Z,10.85
2023-05-03T07:49:35.505Z,10.99
2023-05-03T07:52:03.622Z,10.86
2023-05-03T07:54:31.210Z,10.93
2023-05-03T07:56:58.723Z,10.75
2023-05-03T07:59:26.687Z,10.91
2023-05-03T08:01:54.362Z,10.53
2023-05-03T08:04:24.335Z,10.95
2023-05-03T08:06:52.424Z,11.31
2023-05-03T08:09:20.662Z,11.57
2023-05-03T08:11:48.173Z,11.66
2023-05-03T08:14:15.661Z,11.68
2023-05-03T08:16:43.109Z,11.08
2023-05-03T08:19:10.590Z,11.49
2023-05-03T08:21:39.413Z,11.81
2023-05-03T08:24:08.334Z,12.00
2023-05-03T08:26:36.151Z,12.09
2023-05-03T08:29:03.888Z,12.11
2023-05-03T08:31:31.656Z,12.09
2023-05-03T08:33:59.299Z,12.27
2023-05-03T08:36:27.550Z,12.06
2023-05-03T08:38:56.517Z,12.11
2023-05-03T08:41:31.509Z,12.24
2023-05-03T08:44:00.074Z,12.48
2023-05-03T08:46:28.741Z,12.52
2023-05-03T08:48:56.697Z,12.69
2023-05-03T08:51:25.588Z,12.71
2023-05-03T08:53:53.427Z,12.62
2023-05-03T08:56:42.837Z,12.92
2023-05-03T08:59:11.677Z,13.18
2023-05-03T09:01:40.820Z,13.37
2023-05-03T09:04:09.252Z,12.85
2023-05-03T09:06:37.318Z,11.86
2023-05-03T09:09:07.356Z,12.51
2023-05-03T09:11:38.455Z,12.97
2023-05-03T09:14:10.331Z,13.45
2023-05-03T09:16:38.690Z,13.45
2023-05-03T09:19:09.368Z,13.62
2023-05-03T09:21:37.188Z,13.81
2023-05-03T09:24:14.238Z,14.09
2023-05-03T09:26:43.521Z,13.84
2023-05-03T09:29:11.465Z,14.06
2023-05-03T09:31:39.568Z,13.98
2023-05-03T09:34:22.936Z,14.20
2023-05-03T09:36:50.499Z,13.75
2023-05-03T09:39:18.447Z,13.77
2023-05-03T09:41:47.576Z,14.13
2023-05-03T09:44:15.074Z,14.43
2023-05-03T09:47:03.040Z,14.04
2023-05-03T09:49:31.544Z,14.36
2023-05-03T09:52:00.147Z,14.36
2023-05-03T09:54:27.741Z,14.25
2023-05-03T09:56:57.556Z,14.12
2023-05-03T09:59:25.478Z,14.34
2023-05-03T10:01:57.248Z,14.49
2023-05-03T10:04:26.357Z,14.14
2023-05-03T10:06:55.407Z,14.71
2023-05-03T10:09:27.124Z,15.17
2023-05-03T10:11:59.853Z,15.07
2023-05-03T10:14:27.392Z,15.10
2023-05-03T10:16:59.927Z,15.31
2023-05-03T10:19:32.274Z,15.04
2023-05-03T10:22:00.560Z,14.77
2023-05-03T10:24:28.096Z,14.99
2023-05-03T10:26:57.655Z,14.74
2023-05-03T10:29:51.877Z,15.25
2023-05-03T10:32:30.184Z,14.82
2023-05-03T10:34:57.765Z,14.45
2023-05-03T10:37:27.722Z,14.56
2023-05-03T10:39:57.500Z,14.77
2023-05-03T10:42:27.956Z,15.03
2023-05-03T10:44:56.030Z,15.39
2023-05-03T10:47:25.116Z,15.75
2023-05-03T10:50:25.118Z,15.62
2023-05-03T10:52:52.691Z,15.02
2023-05-03T10:55:21.912Z,15.73
2023-05-03T10:57:51.071Z,15.55
2023-05-03T11:00:22.105Z,15.90
2023-05-03T11:03:08.139Z,15.96
2023-05-03T11:05:37.158Z,15.98
2023-05-03T11:08:12.190Z,15.95
2023-05-03T11:10:39.859Z,16.17
2023-05-03T11:13:08.782Z,15.82
2023-05-03T11:15:36.368Z,16.53
2023-05-03T11:18:04.269Z,16.85
2023-05-03T11:20:31.775Z,17.06
2023-05-03T11:22:59.312Z,17.18
2023-05-03T11:25:27.059Z,16.73
2023-05-03T11:27:54.551Z,16.86
2023-05-03T11:30:23.478Z,17.13
2023-05-03T11:32:51.041Z,17.28
2023-05-03T11:35:19.352Z,17.52
2023-05-03T11:37:46.945Z,17.68
2023-05-03T11:40:18.164Z,17.68
2023-05-03T11:42:52.113Z,17.19
2023-05-03T11:45:22.966Z,17.43
2023-05-03T11:47:52.623Z,17.56
2023-05-03T11:50:20.370Z,17.52
2023-05-03T11:52:48.157Z,17.60
2023-05-03T11:55:17.856Z,17.59
2023-05-03T11:57:46.277Z,17.77
2023-05-03T12:00:17.436Z,17.43
2023-05-03T12:02:45.726Z,17.51
2023-05-03T12:05:14.994Z,16.64
2023-05-03T12:07:44.435Z,16.70
2023-05-03T12:10:23.146Z,16.85
2023-05-03T12:12:56.937Z,17.05
2023-05-03T12:15:33.931Z,17.33
2023-05-03T12:18:04.660Z,17.45
2023-05-03T12:21:28.421Z,17.55
2023-05-03T12:23:22.096Z,17.85
2023-05-03T12:25:52.817Z,18.02
2023-05-03T12:28:21.570Z,17.78
2023-05-03T12:30:51.435Z,17.88
2023-05-03T12:33:22.759Z,16.87
2023-05-03T12:35:54.290Z,17.30
2023-05-03T12:38:24.469Z,17.43
2023-05-03T12:40:53.182Z,17.60
2023-05-03T12:43:20.831Z,17.80
2023-05-03T12:46:04.022Z,17.96
2023-05-03T12:48:36.100Z,18.22
2023-05-03T12:53:38.898Z,17.29
2023-05-03T12:56:08.729Z,17.58
2023-05-03T12:59:04.627Z,17.57
2023-05-03T13:04:15.032Z,17.77
2023-05-03T13:06:46.732Z,17.98
2023-05-03T13:09:20.668Z,17.79
2023-05-03T13:11:50.338Z,18.09
2023-05-03T13:14:18.039Z,18.11
2023-05-03T13:16:46.379Z,17.96
2023-05-03T13:19:13.944Z,17.98
2023-05-03T13:21:41.448Z,18.04
2023-05-03T13:24:10.466Z,18.12
2023-05-03T13:26:38.032Z,18.05
2023-05-03T13:29:06.009Z,17.90
2023-05-03T13:31:33.621Z,17.85
2023-05-03T13:34:01.146Z,17.47
2023-05-03T13:36:29.476Z,17.54
2023-05-03T13:38:58.099Z,17.64
2023-05-03T13:41:26.915Z,17.45
2023-05-03T13:43:54.447Z,17.29
2023-05-03T13:46:23.177Z,17.36
2023-05-03T13:48:50.992Z,17.20
2023-05-03T13:51:18.570Z,17.35
2023-05-03T13:53:46.182Z,17.39
2023-05-03T13:56:13.637Z,17.28
2023-05-03T13:58:42.476Z,17.28
2023-05-03T14:01:09.953Z,17.43
2023-05-03T14:03:37.533Z,17.31
2023-05-03T14:06:05.363Z,17.11
2023-05-03T14:08:32.922Z,17.23
2023-05-03T14:11:00.428Z,17.20
2023-05-03T14:13:31.372Z,17.27
2023-05-03T14:16:06.846Z,17.20
2023-05-03T14:18:34.472Z,17.28
2023-05-03T14:21:01.985Z,17.25
2023-05-03T14:23:29.486Z,17.09
2023-05-03T14:25:57.355Z,16.83
2023-05-03T14:28:24.885Z,16.95
2023-05-03T14:30:52.701Z,16.96
2023-05-03T14:33:21.780Z,16.65
2023-05-03T14:35:49.668Z,16.94
2023-05-03T14:38:17.305Z,16.77
2023-05-03T14:40:44.861Z,16.93
2023-05-03T14:43:12.397Z,16.78
2023-05-03T14:45:40.186Z,17.06
2023-05-03T14:48:08.107Z,17.14
2023-05-03T14:50:37.115Z,17.07
2023-05-03T14:53:04.648Z,17.10
2023-05-03T14:55:32.369Z,17.14
2023-05-03T14:57:59.914Z,17.18
2023-05-03T15:00:29.186Z,16.96
2023-05-03T15:02:57.022Z,16.95
2023-05-03T15:05:24.639Z,16.90
2023-05-03T15:07:53.716Z,16.86
2023-05-03T15:10:21.570Z,16.85
2023-05-03T15:12:49.638Z,16.90
2023-05-03T15:15:17.176Z,16.77
2023-05-03T15:17:44.951Z,16.69
2023-05-03T15:20:15.295Z,16.71
2023-05-03T15:22:43.484Z,16.78
2023-05-03T15:25:12.483Z,16.73
2023-05-03T15:27:39.964Z,16.58
2023-05-03T15:30:12.276Z,16.58
2023-05-03T15:32:40.206Z,16.62
2023-05-03T15:35:08.206Z,16.68
2023-05-03T15:37:37.587Z,16.50
2023-05-03T15:40:06.409Z,16.44
2023-05-03T15:42:36.787Z,16.51
2023-05-03T15:45:05.886Z,16.45
2023-05-03T15:47:34.236Z,16.39
2023-05-03T15:50:02.300Z,16.41
2023-05-03T15:52:30.863Z,16.31
2023-05-03T15:54:58.554Z,16.25
2023-05-03T15:57:26.695Z,16.22
2023-05-03T15:59:55.874Z,16.20
2023-05-03T16:02:23.560Z,16.07
2023-05-03T16:04:51.245Z,16.21
2023-05-03T16:07:18.928Z,16.43
2023-05-03T16:09:46.712Z,16.56
2023-05-03T16:12:14.176Z,16.50
2023-05-03T16:14:41.918Z,16.33
2023-05-03T16:17:10.708Z,16.21
2023-05-03T16:19:38.289Z,16.06
2023-05-03T16:22:05.970Z,15.96
2023-05-03T16:24:34.841Z,15.93
2023-05-03T16:27:03.536Z,15.81
2023-05-03T16:29:31.708Z,15.78
2023-05-03T16:31:59.753Z,15.60
2023-05-03T16:34:28.611Z,15.55
2023-05-03T16:36:56.137Z,15.47
2023-05-03T16:39:23.859Z,15.47
2023-05-03T16:41:51.375Z,15.48
2023-05-03T16:44:19.391Z,15.29
2023-05-03T16:46:48.637Z,15.16
2023-05-03T16:49:16.140Z,15.26
2023-05-03T16:51:44.988Z,15.32
2023-05-03T16:54:16.244Z,15.36
2023-05-03T16:56:43.960Z,15.21
2023-05-03T16:59:11.682Z,15.12
2023-05-03T17:01:39.295Z,15.12
2023-05-03T17:04:07.296Z,15.07
2023-05-03T17:06:34.817Z,15.01
2023-05-03T17:09:04.286Z,14.82
2023-05-03T17:11:31.899Z,14.75
2023-05-03T17:14:00.749Z,14.72
2023-05-03T17:16:28.593Z,14.76
2023-05-03T17:18:56.285Z,14.73
2023-05-03T17:21:24.837Z,14.63
2023-05-03T17:23:52.406Z,14.54
2023-05-03T17:26:22.235Z,14.58
2023-05-03T17:28:49.730Z,14.56
2023-05-03T17:31:17.385Z,14.55
2023-05-03T17:33:44.912Z,14.39
2023-05-03T17:36:12.462Z,14.05
2023-05-03T17:38:39.952Z,14.13
2023-05-03T17:41:08.254Z,14.12
2023-05-03T17:43:37.269Z,14.10
2023-05-03T17:46:10.771Z,14.10
2023-05-03T17:48:39.497Z,14.10
2023-05-03T17:51:07.814Z,14.12
2023-05-03T17:53:35.517Z,14.07
2023-05-03T17:56:03.093Z,14.03
2023-05-03T17:58:30.633Z,13.96
2023-05-03T18:00:59.434Z,13.90
2023-05-03T18:03:27.484Z,13.68
2023-05-03T18:05:55.122Z,13.74
2023-05-03T18:08:22.808Z,13.57
2023-05-03T18:10:51.640Z,13.55
2023-05-03T18:13:20.275Z,13.50
2023-05-03T18:15:48.730Z,13.48
2023-05-03T18:18:17.563Z,13.42
2023-05-03T18:20:45.089Z,13.43
2023-05-03T18:23:12.730Z,13.43
2023-05-03T18:25:40.255Z,13.35
2023-05-03T18:28:08.435Z,13.29
2023-05-03T18:30:36.121Z,13.21
2023-05-03T18:33:03.985Z,13.21
2023-05-03T18:35:33.308Z,13.15
2023-05-03T18:38:00.878Z,13.07
2023-05-03T18:40:30.002Z,13.08
2023-05-03T18:42:57.780Z,13.06
2023-05-03T18:45:25.422Z,12.91
2023-05-03T18:47:52.977Z,12.87
2023-05-03T18:50:20.569Z,12.87
2023-05-03T18:52:50.789Z,12.83
2023-05-03T18:55:18.546Z,12.88
2023-05-03T18:57:46.026Z,12.75
2023-05-03T19:00:14.233Z,12.77
2023-05-03T19:02:41.769Z,12.73
2023-05-03T19:05:12.155Z,12.49
2023-05-03T19:07:42.978Z,12.58
2023-05-03T19:10:12.458Z,12.55
2023-05-03T19:12:40.733Z,12.52
2023-05-03T19:15:09.405Z,12.49
2023-05-03T19:17:37.051Z,12.52
2023-05-03T19:20:06.181Z,12.52
2023-05-03T19:22:34.144Z,12.48
2023-05-03T19:25:04.132Z,12.38
2023-05-03T19:27:33.892Z,12.32
2023-05-03T19:30:01.692Z,12.31
2023-05-03T19:32:29.828Z,12.28
2023-05-03T19:34:57.728Z,12.29
2023-05-03T19:37:25.921Z,12.26
2023-05-03T19:39:53.475Z,12.17
2023-05-03T19:42:20.979Z,12.21
2023-05-03T19:44:49.927Z,12.13
2023-05-03T19:47:17.514Z,12.03
2023-05-03T19:49:45.042Z,12.04
2023-05-03T19:52:12.604Z,12.04
2023-05-03T19:54:40.113Z,11.99
2023-05-03T19:57:08.206Z,11.98
2023-05-03T19:59:36.434Z,11.95
2023-05-03T20:02:05.340Z,11.91
2023-05-03T20:04:32.964Z,11.83
2023-05-03T20:07:00.907Z,11.74
2023-05-03T20:09:28.409Z,11.66
2023-05-03T20:11:58.675Z,11.63
2023-05-03T20:14:26.663Z,11.45
2023-05-03T20:16:54.275Z,11.38
2023-05-03T20:19:23.684Z,11.36
2023-05-03T20:21:51.363Z,11.42
2023-05-03T20:24:19.832Z,11.33
2023-05-03T20:26:47.321Z,11.18
2023-05-03T20:29:14.912Z,11.07
2023-05-03T20:31:42.499Z,11.01
2023-05-03T20:34:10.035Z,10.93
2023-05-03T20:36:38.901Z,10.99
2023-05-03T20:39:06.384Z,11.06
2023-05-03T20:41:33.843Z,11.02
2023-05-03T20:44:01.342Z,10.84
2023-05-03T20:46:28.815Z,10.85
2023-05-03T20:48:56.834Z,10.76
2023-05-03T20:51:24.374Z,10.78
2023-05-03T20:53:53.227Z,10.65
2023-05-03T20:56:21.177Z,10.78
2023-05-03T20:58:48.649Z,10.43
2023-05-03T21:01:16.182Z,10.44
2023-05-03T21:03:43.800Z,10.57
2023-05-03T21:06:11.306Z,10.63
2023-05-03T21:08:38.799Z,10.57
2023-05-03T21:11:08.354Z,10.39
2023-05-03T21:13:36.111Z,10.28
2023-05-03T21:16:03.892Z,10.26
2023-05-03T21:18:31.375Z,10.03
2023-05-03T21:20:58.903Z,9.91
2023-05-03T21:23:26.392Z,9.82
2023-05-03T21:25:55.943Z,10.04
2023-05-03T21:28:25.555Z,9.88
2023-05-03T21:30:55.027Z,9.79
2023-05-03T21:33:22.701Z,10.16
2023-05-03T21:35:50.405Z,9.89
2023-05-03T21:38:17.916Z,10.10
2023-05-03T21:40:46.982Z,10.05
2023-05-03T21:43:14.535Z,10.09
2023-05-03T21:45:43.966Z,9.62
2023-05-03T21:48:12.568Z,9.20
2023-05-03T21:50:40.249Z,9.01
2023-05-03T21:53:07.859Z,8.93
2023-05-03T21:55:35.392Z,8.92
2023-05-03T21:58:02.874Z,8.74
2023-05-03T22:00:31.655Z,8.80
2023-05-03T22:03:00.566Z,8.83
2023-05-03T22:05:28.226Z,8.77
2023-05-03T22:07:55.843Z,8.86
2023-05-03T22:10:23.391Z,8.69
2023-05-03T22:12:51.024Z,8.81
2023-05-03T22:15:18.759Z,9.01
2023-05-03T22:17:46.358Z,8.77
2023-05-03T22:20:15.276Z,8.74
2023-05-03T22:22:42.845Z,8.80
2023-05-03T22:25:10.641Z,8.81
2023-05-03T22:27:38.194Z,8.57
2023-05-03T22:30:07.065Z,8.41
2023-05-03T22:32:34.613Z,8.45
2023-05-03T22:35:02.260Z,8.37
2023-05-03T22:37:31.103Z,8.46
2023-05-03T22:39:58.641Z,8.35
2023-05-03T22:42:26.128Z,8.25
2023-05-03T22:44:55.320Z,8.25
2023-05-03T22:47:24.009Z,8.22
2023-05-03T22:49:51.914Z,7.85
2023-05-03T22:52:19.452Z,7.72
2023-05-03T22:54:48.261Z,7.97
2023-05-03T22:57:15.765Z,8.25
2023-05-03T22:59:45.549Z,8.37
2023-05-03T23:02:13.014Z,8.41
2023-05-03T23:04:40.521Z,8.15
2023-05-03T23:07:08.010Z,8.08
2023-05-03T23:09:35.487Z,7.78
2023-05-03T23:12:04.802Z,7.77
2023-05-03T23:14:32.316Z,7.62
2023-05-03T23:16:59.840Z,7.67
2023-05-03T23:19:27.413Z,7.57
2023-05-03T23:21:54.931Z,7.55
2023-05-03T23:24:22.994Z,7.62
2023-05-03T23:26:50.668Z,7.43
2023-05-03T23:29:19.822Z,7.53
2023-05-03T23:31:47.811Z,7.41
2023-05-03T23:34:15.824Z,7.34
2023-05-03T23:36:43.399Z,7.42
2023-05-03T23:39:10.874Z,7.38
2023-05-03T23:41:38.369Z,7.26
2023-05-03T23:44:06.133Z,7.26
2023-05-03T23:46:35.670Z,7.18
2023-05-03T23:49:03.346Z,7.08
2023-05-03T23:51:30.910Z,7.03
2023-05-03T23:53:58.367Z,6.99
2023-05-03T23:56:26.102Z,7.00
2023-05-03T23:58:53.809Z,7.02
